Time;durP1;ratioP1;P1;durP2;ratioP2;P2;SDS_P1;SDS_P2;PMS_P1;PMS_P2;Temp;Humidity;BMP_temperature;BMP_pressure;BME280_temperature;BME280_humidity;BME280_pressure;Samples;Min_cycle;Max_cycle;Signal;HPM_P1;HPM_P2
2023/01/07 00:01:11;;;;;;;10.32;7.15;;;12.10;99.90;;;;;;5055058;28;20045;-83
2023/01/07 00:03:38;;;;;;;11.60;7.10;;;12.10;99.90;;;;;;5054898;28;20075;-84
2023/01/07 00:06:13;;;;;;;13.02;7.28;;;12.00;99.90;;;;;;5053555;28;20033;-83
2023/01/07 00:08:40;;;;;;;10.02;7.47;;;12.00;99.90;;;;;;5055852;28;20136;-85
2023/01/07 00:11:15;;;;;;;11.10;7.50;;;12.00;99.90;;;;;;5074854;28;20074;-84
2023/01/07 00:13:42;;;;;;;10.98;7.20;;;12.00;99.90;;;;;;5056675;28;20020;-85
2023/01/07 00:16:11;;;;;;;10.27;7.53;;;12.00;99.90;;;;;;5056472;28;20028;-84
2023/01/07 00:18:37;;;;;;;9.38;7.47;;;11.90;99.90;;;;;;5056512;28;20131;-84
2023/01/07 00:21:06;;;;;;;10.35;7.80;;;11.90;99.90;;;;;;5022970;28;20123;-84
2023/01/07 00:23:33;;;;;;;11.32;8.00;;;11.90;99.90;;;;;;5056331;28;20024;-84
2023/01/07 00:26:06;;;;;;;11.68;7.43;;;11.90;99.90;;;;;;5056007;28;20021;-84
2023/01/07 00:28:34;;;;;;;10.13;7.28;;;11.90;99.90;;;;;;5055912;28;20021;-83
2023/01/07 00:31:01;;;;;;;9.85;6.95;;;11.90;99.90;;;;;;5056107;28;20021;-84
2023/01/07 00:33:29;;;;;;;10.73;6.63;;;11.80;99.90;;;;;;5056027;28;20031;-84
2023/01/07 00:35:59;;;;;;;9.32;6.72;;;11.80;99.90;;;;;;5039775;28;20036;-84
2023/01/07 00:38:25;;;;;;;12.95;7.70;;;11.80;99.90;;;;;;5056107;28;20115;-84
2023/01/07 00:40:51;;;;;;;12.43;6.65;;;11.80;99.90;;;;;;5038982;28;20510;-85
2023/01/07 00:43:16;;;;;;;9.32;6.95;;;11.70;99.90;;;;;;5039439;28;20036;-84
2023/01/07 00:45:43;;;;;;;9.43;7.15;;;11.70;99.90;;;;;;5022958;28;20024;-84
2023/01/07 00:48:11;;;;;;;10.32;6.90;;;11.70;99.90;;;;;;5039721;28;20430;-84
2023/01/07 00:50:37;;;;;;;10.25;7.65;;;11.70;99.90;;;;;;5055834;28;20025;-83
2023/01/07 00:53:03;;;;;;;11.85;7.80;;;11.70;99.90;;;;;;5073688;28;20348;-84
2023/01/07 00:55:29;;;;;;;12.95;7.72;;;11.70;99.90;;;;;;5056022;28;20183;-84
2023/01/07 00:57:55;;;;;;;10.55;7.55;;;11.60;99.90;;;;;;5039606;28;20131;-83
2023/01/07 01:00:23;;;;;;;12.93;7.82;;;11.60;99.90;;;;;;5076103;28;20437;-84
2023/01/07 01:02:49;;;;;;;10.57;7.65;;;11.70;99.90;;;;;;5055401;28;20067;-84
2023/01/07 01:05:15;;;;;;;9.88;6.32;;;11.70;99.90;;;;;;5056232;28;20024;-82
2023/01/07 01:07:41;;;;;;;11.00;7.40;;;11.70;99.90;;;;;;5039868;28;20025;-84
2023/01/07 01:10:09;;;;;;;13.52;7.75;;;11.70;99.90;;;;;;5056208;28;20209;-85
2023/01/07 01:12:35;;;;;;;9.57;6.93;;;11.70;99.90;;;;;;5056011;28;20123;-84
2023/01/07 01:15:04;;;;;;;11.52;7.68;;;11.70;99.90;;;;;;5040169;28;20488;-84
2023/01/07 01:17:30;;;;;;;10.50;6.80;;;11.60;99.90;;;;;;5056961;28;20465;-84
2023/01/07 01:19:56;;;;;;;13.40;7.57;;;11.70;99.90;;;;;;5074448;28;20033;-83
2023/01/07 01:22:22;;;;;;;10.50;6.93;;;11.70;99.90;;;;;;5057357;28;20381;-83
2023/01/07 01:24:49;;;;;;;10.63;7.18;;;11.70;99.90;;;;;;5040319;28;20435;-87
2023/01/07 01:27:15;;;;;;;10.75;6.82;;;11.70;99.90;;;;;;5059542;28;20055;-83
2023/01/07 01:29:40;;;;;;;13.85;6.55;;;11.70;99.90;;;;;;5060984;28;20452;-83
2023/01/07 01:32:06;;;;;;;10.82;7.05;;;11.70;99.90;;;;;;5058737;28;20063;-83
2023/01/07 01:34:32;;;;;;;10.27;6.60;;;11.70;99.90;;;;;;5040549;28;20442;-85
2023/01/07 01:36:57;;;;;;;10.68;6.85;;;11.70;99.90;;;;;;5041729;28;20473;-85
2023/01/07 01:39:23;;;;;;;11.48;6.40;;;11.70;99.90;;;;;;5025897;28;20025;-84
2023/01/07 01:41:49;;;;;;;10.45;6.80;;;11.70;99.90;;;;;;5043537;28;20457;-86
2023/01/07 01:44:52;;;;;;;9.57;6.63;;;11.70;99.90;;;;;;5058408;28;20435;-84
2023/01/07 01:47:25;;;;;;;11.48;6.20;;;11.70;99.90;;;;;;5056624;28;20059;-84
2023/01/07 01:50:00;;;;;;;9.95;5.80;;;11.70;99.90;;;;;;5059840;28;20021;-86
2023/01/07 01:52:49;;;;;;;8.27;5.70;;;11.70;99.90;;;;;;5059488;28;20024;-83
2023/01/07 01:55:18;;;;;;;10.05;6.10;;;11.70;99.90;;;;;;5078288;28;20021;-83
2023/01/07 01:57:48;;;;;;;9.75;5.65;;;11.70;99.90;;;;;;5062378;28;20028;-84
2023/01/07 02:00:15;;;;;;;9.77;5.43;;;11.70;99.90;;;;;;5078415;28;20098;-84
2023/01/07 02:02:47;;;;;;;7.78;5.20;;;11.70;99.90;;;;;;5024535;28;20036;-84
2023/01/07 02:05:13;;;;;;;11.00;5.63;;;11.70;99.90;;;;;;5055163;28;20020;-84
2023/01/07 02:07:39;;;;;;;10.25;5.45;;;11.70;99.90;;;;;;5055711;28;20035;-84
2023/01/07 02:10:17;;;;;;;10.60;5.47;;;11.70;99.90;;;;;;5055149;28;20139;-84
2023/01/07 02:13:06;;;;;;;9.85;5.20;;;11.70;99.90;;;;;;5054934;28;20122;-84
2023/01/07 02:15:50;;;;;;;6.57;4.97;;;11.60;99.90;;;;;;5032616;28;20115;-83
2023/01/07 02:18:34;;;;;;;7.95;4.90;;;11.60;99.90;;;;;;5055352;28;20067;-84
2023/01/07 02:21:06;;;;;;;10.02;5.35;;;11.60;99.90;;;;;;5055572;28;20028;-84
2023/01/07 02:23:41;;;;;;;7.75;4.85;;;11.60;99.90;;;;;;5055609;28;20124;-83
2023/01/07 02:26:24;;;;;;;8.38;5.10;;;11.60;99.90;;;;;;5055998;28;20025;-84
2023/01/07 02:29:11;;;;;;;7.65;5.00;;;11.50;99.90;;;;;;5075951;28;20036;-85
2023/01/07 02:32:06;;;;;;;11.93;5.53;;;11.50;99.90;;;;;;5079954;28;20027;-84
2023/01/07 02:34:34;;;;;;;7.35;4.50;;;11.50;99.90;;;;;;5035375;28;20048;-84
2023/01/07 02:37:27;;;;;;;8.32;4.63;;;11.50;99.90;;;;;;5070663;28;20036;-84
2023/01/07 02:40:17;;;;;;;8.63;4.88;;;11.50;99.90;;;;;;5090066;28;20033;-84
2023/01/07 02:42:55;;;;;;;8.20;4.70;;;11.50;99.90;;;;;;5065980;28;20087;-83
2023/01/07 02:45:31;;;;;;;9.48;4.90;;;11.40;99.90;;;;;;5068670;28;20096;-84
2023/01/07 02:48:04;;;;;;;9.00;4.97;;;11.50;99.90;;;;;;5070850;28;20028;-85
2023/01/07 02:50:30;;;;;;;8.73;4.93;;;11.50;99.90;;;;;;5068418;28;20096;-84
2023/01/07 02:52:55;;;;;;;9.25;5.25;;;11.40;99.90;;;;;;5082161;28;20052;-84
2023/01/07 02:55:36;;;;;;;7.55;4.60;;;11.50;99.90;;;;;;5066422;28;20024;-83
2023/01/07 02:58:32;;;;;;;8.73;5.40;;;11.50;99.90;;;;;;5065401;28;20123;-84
2023/01/07 03:01:35;;;;;;;8.43;4.65;;;11.50;99.90;;;;;;5059467;28;20040;-87
2023/01/07 03:04:25;;;;;;;9.07;4.78;;;11.50;99.90;;;;;;5058599;28;20116;-84
2023/01/07 03:07:18;;;;;;;9.35;4.60;;;11.50;99.90;;;;;;5058366;28;20082;-83
2023/01/07 03:09:49;;;;;;;9.68;5.13;;;11.50;99.90;;;;;;5057950;28;20380;-83
2023/01/07 03:12:35;;;;;;;9.40;5.13;;;11.50;99.90;;;;;;5057437;28;20024;-85
2023/01/07 03:15:16;;;;;;;9.95;4.72;;;11.50;99.90;;;;;;5074247;28;20025;-84
2023/01/07 03:17:52;;;;;;;8.95;5.20;;;11.50;99.90;;;;;;5057724;28;20029;-84
2023/01/07 03:20:21;;;;;;;8.48;4.90;;;11.50;99.90;;;;;;5057672;28;20029;-84
2023/01/07 03:22:48;;;;;;;10.07;4.60;;;11.50;99.90;;;;;;5056101;28;20059;-85
2023/01/07 03:25:16;;;;;;;9.48;4.85;;;11.40;99.90;;;;;;5038839;28;20473;-84
2023/01/07 03:27:44;;;;;;;7.95;4.30;;;11.40;99.90;;;;;;5040468;28;20452;-84
2023/01/07 03:30:13;;;;;;;7.80;4.47;;;11.50;99.90;;;;;;5057125;28;20457;-84
2023/01/07 03:32:52;;;;;;;7.53;4.70;;;11.40;99.90;;;;;;5056900;28;20028;-84
2023/01/07 03:35:20;;;;;;;8.60;4.43;;;11.40;99.90;;;;;;5057170;28;20484;-84
2023/01/07 03:37:49;;;;;;;8.27;4.38;;;11.40;99.90;;;;;;5057253;28;20131;-84
2023/01/07 03:40:16;;;;;;;8.68;4.85;;;11.40;99.90;;;;;;5075164;28;20028;-84
2023/01/07 03:42:46;;;;;;;8.23;4.53;;;11.30;99.90;;;;;;5040852;28;20033;-84
2023/01/07 03:45:23;;;;;;;9.95;4.78;;;11.40;99.90;;;;;;5056907;28;20112;-84
2023/01/07 03:47:52;;;;;;;8.20;4.10;;;11.30;99.90;;;;;;5074892;28;20028;-84
2023/01/07 03:50:17;;;;;;;5.93;4.07;;;11.30;99.90;;;;;;5055136;28;20066;-85
2023/01/07 03:52:44;;;;;;;11.15;4.38;;;11.40;99.90;;;;;;5022437;28;20056;-84
2023/01/07 03:55:10;;;;;;;7.45;4.00;;;11.30;99.90;;;;;;5055665;28;20383;-84
2023/01/07 03:57:36;;;;;;;4.82;3.45;;;11.30;99.90;;;;;;5040060;28;20024;-84
2023/01/07 04:00:05;;;;;;;6.38;3.90;;;11.30;99.90;;;;;;5056882;28;20025;-84
2023/01/07 04:02:30;;;;;;;7.03;3.90;;;11.20;99.90;;;;;;5056432;28;20028;-84
2023/01/07 04:04:56;;;;;;;7.45;4.07;;;11.20;99.90;;;;;;5056562;28;20419;-84
2023/01/07 04:07:22;;;;;;;7.20;4.18;;;11.20;99.90;;;;;;5039586;28;20029;-84
2023/01/07 04:09:49;;;;;;;6.43;3.67;;;11.20;99.90;;;;;;5024258;28;20052;-84
2023/01/07 04:12:15;;;;;;;7.45;4.20;;;11.20;99.90;;;;;;5056839;28;20048;-84
2023/01/07 04:14:41;;;;;;;6.43;3.90;;;11.20;99.90;;;;;;5039976;28;20034;-84
2023/01/07 04:17:06;;;;;;;6.57;3.78;;;11.10;99.90;;;;;;5039819;28;20028;-84
2023/01/07 04:19:32;;;;;;;6.30;3.70;;;11.10;99.90;;;;;;5039667;28;20035;-83
2023/01/07 04:21:58;;;;;;;6.55;4.03;;;11.10;99.90;;;;;;5039757;28;20090;-84
2023/01/07 04:24:24;;;;;;;6.95;3.72;;;11.10;99.90;;;;;;5039579;28;20035;-84
2023/01/07 04:26:50;;;;;;;5.13;3.90;;;11.10;99.90;;;;;;5056264;28;20036;-84
2023/01/07 04:29:15;;;;;;;5.70;3.78;;;11.10;99.90;;;;;;5056068;28;20059;-84
2023/01/07 04:31:41;;;;;;;6.75;4.00;;;11.00;99.90;;;;;;5056605;28;20020;-84
2023/01/07 04:34:07;;;;;;;7.45;3.90;;;11.00;99.90;;;;;;5039666;28;20104;-84
2023/01/07 04:36:32;;;;;;;7.75;3.72;;;11.00;99.90;;;;;;5039207;28;20452;-84
2023/01/07 04:38:58;;;;;;;6.30;3.42;;;11.00;99.90;;;;;;5055965;28;20566;-83
2023/01/07 04:41:23;;;;;;;7.97;3.95;;;11.00;99.90;;;;;;5039241;28;20021;-84
2023/01/07 04:43:49;;;;;;;8.68;3.80;;;11.00;99.90;;;;;;5023355;28;20027;-84
2023/01/07 04:46:15;;;;;;;6.28;3.42;;;11.10;99.90;;;;;;5039389;28;20056;-84
2023/01/07 04:48:40;;;;;;;6.45;3.67;;;11.00;99.90;;;;;;5056191;28;20112;-84
2023/01/07 04:51:06;;;;;;;8.48;3.67;;;11.00;99.90;;;;;;5039592;28;20461;-84
2023/01/07 04:53:31;;;;;;;6.57;3.90;;;11.00;99.90;;;;;;5022362;28;20103;-84
2023/01/07 04:55:57;;;;;;;7.80;3.70;;;11.00;99.90;;;;;;5056217;28;20460;-84
2023/01/07 04:58:23;;;;;;;6.07;3.85;;;11.00;99.90;;;;;;5055917;28;20036;-84
2023/01/07 05:00:50;;;;;;;7.00;3.35;;;11.00;99.90;;;;;;5023035;28;20082;-84
2023/01/07 05:03:16;;;;;;;6.72;3.25;;;11.00;99.90;;;;;;5056067;28;20166;-85
2023/01/07 05:05:41;;;;;;;4.75;2.85;;;11.10;99.90;;;;;;5060496;28;20083;-84
2023/01/07 05:08:07;;;;;;;7.72;3.55;;;11.10;99.90;;;;;;5051131;28;20033;-85
2023/01/07 05:10:32;;;;;;;6.72;3.63;;;11.10;99.90;;;;;;5040807;28;20281;-84
2023/01/07 05:12:58;;;;;;;6.30;3.17;;;11.10;99.90;;;;;;5057398;28;20028;-84
2023/01/07 05:15:24;;;;;;;6.85;3.20;;;11.10;99.90;;;;;;5039075;28;20050;-84
2023/01/07 05:17:49;;;;;;;7.75;3.17;;;11.10;99.90;;;;;;5055919;28;20082;-84
2023/01/07 05:20:15;;;;;;;7.38;3.47;;;11.10;99.90;;;;;;5022680;28;20067;-85
2023/01/07 05:22:40;;;;;;;5.28;2.95;;;11.10;99.90;;;;;;5039096;28;20123;-84
2023/01/07 05:25:06;;;;;;;5.50;3.53;;;11.10;99.90;;;;;;5055837;28;20025;-83
2023/01/07 05:27:32;;;;;;;6.55;3.08;;;11.10;99.90;;;;;;5039533;28;20476;-84
2023/01/07 05:29:58;;;;;;;6.07;3.35;;;11.10;99.90;;;;;;5022996;28;20483;-84
2023/01/07 05:32:23;;;;;;;5.05;2.72;;;11.20;99.90;;;;;;5038611;28;20024;-84
2023/01/07 05:34:49;;;;;;;6.70;2.90;;;11.20;99.90;;;;;;5055108;28;20433;-84
2023/01/07 05:37:15;;;;;;;5.53;2.88;;;11.20;99.90;;;;;;5020106;28;20026;-84
2023/01/07 05:39:40;;;;;;;8.07;3.13;;;11.20;99.90;;;;;;5018730;28;20037;-83
2023/01/07 05:42:06;;;;;;;6.55;3.20;;;11.20;99.90;;;;;;5003332;28;20032;-84
2023/01/07 05:44:31;;;;;;;5.60;2.97;;;11.20;99.90;;;;;;5019302;28;20110;-84
2023/01/07 05:46:57;;;;;;;6.38;2.90;;;11.20;99.90;;;;;;5002981;28;20079;-84
2023/01/07 05:49:23;;;;;;;6.30;2.88;;;11.20;99.90;;;;;;5035802;28;20021;-84
2023/01/07 05:51:48;;;;;;;6.57;3.10;;;11.20;99.90;;;;;;5036113;28;20036;-84
2023/01/07 05:54:14;;;;;;;6.63;3.15;;;11.20;99.90;;;;;;5019474;28;20029;-84
2023/01/07 05:56:40;;;;;;;6.03;3.17;;;11.20;99.90;;;;;;5019048;28;20385;-84
2023/01/07 05:59:05;;;;;;;6.97;3.05;;;11.20;99.90;;;;;;5035619;28;20033;-84
2023/01/07 06:01:31;;;;;;;6.60;3.60;;;11.20;99.90;;;;;;5018469;28;20032;-84
2023/01/07 06:03:57;;;;;;;7.57;3.10;;;11.20;99.90;;;;;;5035479;28;20033;-84
2023/01/07 06:06:22;;;;;;;7.00;3.60;;;11.20;99.90;;;;;;5021515;28;20032;-84
2023/01/07 06:08:48;;;;;;;9.80;3.20;;;11.20;99.90;;;;;;5039291;28;20123;-84
2023/01/07 06:11:14;;;;;;;4.93;2.67;;;11.20;99.90;;;;;;5038902;28;20021;-84
2023/01/07 06:13:40;;;;;;;6.55;2.95;;;11.20;99.90;;;;;;5039183;28;20326;-83
2023/01/07 06:16:08;;;;;;;5.55;2.55;;;11.20;99.90;;;;;;5022534;28;20029;-84
2023/01/07 06:18:34;;;;;;;6.28;2.75;;;11.20;99.90;;;;;;5022630;28;20040;-84
2023/01/07 06:21:00;;;;;;;6.25;2.60;;;11.20;99.90;;;;;;5022584;28;20032;-84
2023/01/07 06:23:27;;;;;;;6.60;3.22;;;11.20;99.90;;;;;;5039104;28;20127;-84
2023/01/07 06:25:52;;;;;;;4.75;2.80;;;11.10;99.90;;;;;;5040744;28;20127;-84
2023/01/07 06:28:18;;;;;;;8.40;3.83;;;11.20;99.90;;;;;;5045497;28;20429;-84
2023/01/07 06:30:45;;;;;;;7.82;2.55;;;11.20;99.90;;;;;;5038199;28;20035;-83
2023/01/07 06:33:11;;;;;;;4.53;2.58;;;11.20;99.90;;;;;;5054051;28;20025;-83
2023/01/07 06:35:36;;;;;;;4.95;2.45;;;11.20;99.90;;;;;;5024908;28;20033;-84
2023/01/07 06:38:02;;;;;;;6.85;2.67;;;11.20;99.90;;;;;;5039894;28;20055;-89
2023/01/07 06:40:28;;;;;;;5.85;2.72;;;11.20;99.90;;;;;;5044693;28;20032;-84
2023/01/07 06:42:53;;;;;;;5.28;2.33;;;11.20;99.90;;;;;;5030533;28;20378;-84
2023/01/07 06:45:19;;;;;;;3.65;2.40;;;11.20;99.90;;;;;;5013259;28;20452;-84
2023/01/07 06:47:44;;;;;;;3.58;2.10;;;11.20;99.90;;;;;;5040688;28;20059;-84
2023/01/07 06:50:11;;;;;;;5.15;2.60;;;11.20;99.90;;;;;;5038585;28;20107;-84
2023/01/07 06:52:37;;;;;;;6.60;2.50;;;11.20;99.90;;;;;;5021653;28;20036;-84
2023/01/07 06:55:03;;;;;;;4.53;2.25;;;11.20;99.90;;;;;;5005464;28;20032;-83
2023/01/07 06:57:28;;;;;;;4.88;2.70;;;11.20;99.90;;;;;;5021486;28;20033;-84
2023/01/07 06:59:54;;;;;;;3.58;2.08;;;11.20;99.90;;;;;;5004962;28;20136;-84
2023/01/07 07:02:22;;;;;;;7.07;2.55;;;11.20;99.90;;;;;;5004118;28;20646;-84
2023/01/07 07:04:49;;;;;;;3.40;1.83;;;11.20;99.90;;;;;;5021330;28;20123;-84
2023/01/07 07:07:15;;;;;;;4.35;2.22;;;11.30;99.90;;;;;;5037633;28;20437;-84
2023/01/07 07:09:41;;;;;;;6.28;2.17;;;11.30;99.90;;;;;;5021342;28;20060;-84
2023/01/07 07:12:07;;;;;;;3.65;2.00;;;11.30;99.90;;;;;;5056128;28;20377;-84
2023/01/07 07:14:33;;;;;;;4.53;1.77;;;11.30;99.90;;;;;;5037796;28;20071;-84
2023/01/07 07:16:59;;;;;;;3.58;1.83;;;11.30;99.90;;;;;;5020476;28;20448;-84
2023/01/07 07:19:24;;;;;;;5.45;2.28;;;11.30;99.90;;;;;;5037793;28;20377;-84
2023/01/07 07:21:50;;;;;;;4.28;2.10;;;11.30;99.90;;;;;;5021252;28;20029;-84
2023/01/07 07:24:16;;;;;;;4.88;1.88;;;11.30;99.90;;;;;;5037811;28;20029;-84
2023/01/07 07:26:41;;;;;;;3.80;1.60;;;11.30;99.90;;;;;;5020733;28;20040;-84
2023/01/07 07:29:08;;;;;;;5.07;2.00;;;11.30;99.90;;;;;;5004048;28;20065;-85
2023/01/07 07:31:34;;;;;;;2.75;1.77;;;11.30;99.90;;;;;;5037685;28;20079;-85
2023/01/07 07:34:00;;;;;;;3.50;1.60;;;11.30;99.90;;;;;;5041995;28;20025;-84
2023/01/07 07:36:25;;;;;;;3.63;2.20;;;11.30;99.90;;;;;;5051034;28;20048;-83
2023/01/07 07:38:51;;;;;;;3.38;1.75;;;11.30;99.90;;;;;;5031762;28;20026;-84
2023/01/07 07:41:17;;;;;;;2.90;1.50;;;11.30;99.90;;;;;;5037775;28;20080;-84
2023/01/07 07:43:42;;;;;;;2.88;1.50;;;11.30;99.90;;;;;;5020945;28;20380;-84
2023/01/07 07:46:08;;;;;;;2.88;1.55;;;11.30;99.90;;;;;;5037151;28;20056;-84
2023/01/07 07:48:34;;;;;;;5.05;1.80;;;11.30;99.90;;;;;;5020336;28;20083;-85
2023/01/07 07:50:59;;;;;;;3.10;1.48;;;11.30;99.90;;;;;;5037072;28;20094;-84
2023/01/07 07:53:25;;;;;;;3.13;1.50;;;11.30;99.90;;;;;;5020517;28;20025;-83
2023/01/07 07:55:52;;;;;;;3.35;1.80;;;11.30;99.90;;;;;;5020360;28;20032;-84
2023/01/07 07:58:18;;;;;;;2.35;1.50;;;11.30;99.90;;;;;;5054910;28;20507;-83
2023/01/07 08:00:43;;;;;;;2.97;1.40;;;11.30;99.90;;;;;;5036906;28;20095;-84
2023/01/07 08:03:10;;;;;;;3.83;1.67;;;11.30;99.90;;;;;;5037077;28;20435;-83
2023/01/07 08:05:40;;;;;;;3.33;1.98;;;11.30;99.90;;;;;;5036867;28;20036;-85
2023/01/07 08:08:08;;;;;;;3.55;1.60;;;11.30;99.90;;;;;;5054649;28;20025;-84
2023/01/07 08:10:34;;;;;;;3.58;1.35;;;11.30;99.90;;;;;;5017567;28;20049;-84
2023/01/07 08:13:03;;;;;;;3.13;1.70;;;11.30;99.90;;;;;;5034338;28;20449;-82
2023/01/07 08:15:29;;;;;;;2.28;1.92;;;11.30;99.90;;;;;;5034795;28;20466;-84
2023/01/07 08:17:59;;;;;;;5.65;1.65;;;11.30;99.90;;;;;;5035231;28;20462;-84
2023/01/07 08:20:26;;;;;;;3.97;1.55;;;11.30;99.90;;;;;;5033563;28;20036;-82
2023/01/07 08:22:52;;;;;;;4.63;1.80;;;11.30;99.90;;;;;;5033231;28;20437;-84
2023/01/07 08:25:18;;;;;;;5.30;1.73;;;11.30;99.90;;;;;;5016911;28;20057;-84
2023/01/07 08:27:44;;;;;;;3.42;1.42;;;11.30;99.90;;;;;;5015881;28;20037;-84
2023/01/07 08:30:10;;;;;;;3.53;1.80;;;11.30;99.90;;;;;;5032830;28;20018;-84
2023/01/07 08:32:37;;;;;;;1.90;1.40;;;11.30;99.90;;;;;;5033121;28;20025;-84
2023/01/07 08:35:03;;;;;;;1.95;1.23;;;11.30;99.90;;;;;;5034096;28;20026;-84
2023/01/07 08:37:30;;;;;;;3.17;1.50;;;11.30;99.90;;;;;;5000188;28;20026;-83
2023/01/07 08:39:56;;;;;;;3.05;1.60;;;11.30;99.90;;;;;;5016539;28;20389;-83
2023/01/07 08:42:21;;;;;;;8.75;2.13;;;11.30;99.90;;;;;;5032599;28;20017;-83
2023/01/07 08:44:47;;;;;;;4.45;1.75;;;11.30;99.90;;;;;;5032785;28;20390;-82
2023/01/07 08:47:13;;;;;;;3.33;1.50;;;11.30;99.90;;;;;;5032773;28;20033;-83
2023/01/07 08:49:39;;;;;;;4.55;1.63;;;11.30;99.90;;;;;;5016229;28;20053;-84
2023/01/07 08:52:05;;;;;;;2.70;1.60;;;11.30;99.90;;;;;;5016324;28;20461;-84
2023/01/07 08:54:30;;;;;;;1.85;1.23;;;11.30;99.90;;;;;;5032397;28;20021;-84
2023/01/07 08:56:56;;;;;;;2.60;1.90;;;11.30;99.90;;;;;;5015680;28;20033;-84
2023/01/07 08:59:22;;;;;;;3.45;1.50;;;11.30;99.90;;;;;;5016158;28;20120;-83
2023/01/07 09:01:47;;;;;;;3.15;1.55;;;11.30;99.90;;;;;;4999720;28;20396;-82
2023/01/07 09:04:13;;;;;;;3.40;1.30;;;11.30;99.90;;;;;;5032488;28;20478;-84
2023/01/07 09:06:38;;;;;;;2.13;1.80;;;11.30;99.90;;;;;;5015964;28;20021;-83
2023/01/07 09:09:04;;;;;;;1.77;1.30;;;11.30;99.90;;;;;;5015839;28;20049;-83
2023/01/07 09:11:30;;;;;;;3.45;1.58;;;11.30;99.90;;;;;;5016543;28;20029;-85
2023/01/07 09:13:55;;;;;;;3.20;1.40;;;11.40;99.90;;;;;;4999912;28;20025;-84
2023/01/07 09:16:21;;;;;;;2.90;1.50;;;11.30;99.90;;;;;;5000113;28;20017;-87
2023/01/07 09:18:47;;;;;;;3.38;1.50;;;11.40;99.90;;;;;;5016623;28;20466;-85
2023/01/07 09:21:22;;;;;;;2.13;1.50;;;11.40;99.90;;;;;;4999786;28;20466;-84
2023/01/07 09:23:48;;;;;;;3.38;1.58;;;11.40;99.90;;;;;;5016294;28;20087;-85
2023/01/07 09:26:14;;;;;;;3.67;1.92;;;11.40;99.90;;;;;;5015614;28;20037;-83
2023/01/07 09:28:39;;;;;;;5.13;1.75;;;11.40;99.90;;;;;;5015776;28;20033;-83
2023/01/07 09:31:06;;;;;;;3.28;1.90;;;11.40;99.90;;;;;;4999381;28;20108;-84
2023/01/07 09:33:33;;;;;;;3.03;1.90;;;11.40;99.90;;;;;;4999590;28;20032;-84
2023/01/07 09:35:58;;;;;;;3.58;1.70;;;11.40;99.90;;;;;;5032379;28;20036;-83
2023/01/07 09:38:24;;;;;;;3.33;1.50;;;11.40;99.90;;;;;;5015909;28;20030;-84
2023/01/07 09:40:51;;;;;;;2.58;1.70;;;11.50;99.90;;;;;;5019185;28;20054;-84
2023/01/07 09:43:31;;;;;;;2.63;1.70;;;11.40;99.90;;;;;;5037745;28;20021;-84
2023/01/07 09:45:59;;;;;;;4.80;1.67;;;11.50;99.90;;;;;;5037690;28;20438;-84
2023/01/07 09:48:34;;;;;;;3.17;1.63;;;11.50;99.90;;;;;;5036450;28;20036;-85
2023/01/07 09:51:04;;;;;;;4.20;1.52;;;11.40;99.90;;;;;;5036450;28;20022;-83
2023/01/07 09:53:36;;;;;;;2.28;1.73;;;11.50;99.90;;;;;;5037466;28;20022;-84
2023/01/07 09:56:05;;;;;;;2.70;1.67;;;11.50;99.90;;;;;;5035664;28;20029;-86
2023/01/07 09:58:33;;;;;;;2.95;1.58;;;11.50;99.90;;;;;;5036227;28;20025;-86
2023/01/07 10:01:23;;;;;;;2.72;1.50;;;11.50;99.90;;;;;;5025072;28;20175;-84
2023/01/07 10:04:01;;;;;;;2.67;1.42;;;11.60;99.90;;;;;;5051732;28;20092;-87
2023/01/07 10:06:37;;;;;;;2.95;1.45;;;11.60;99.90;;;;;;5052239;28;20025;-84
2023/01/07 10:09:31;;;;;;;2.30;1.58;;;11.60;99.90;;;;;;5040487;28;20123;-85
2023/01/07 10:12:16;;;;;;;3.00;1.58;;;11.60;99.90;;;;;;5050811;28;20044;-84
2023/01/07 10:15:00;;;;;;;1.70;1.33;;;11.60;99.90;;;;;;5062555;28;20021;-84
2023/01/07 10:17:48;;;;;;;2.67;1.30;;;11.60;99.90;;;;;;5059215;28;20048;-84
2023/01/07 10:20:41;;;;;;;4.43;1.50;;;11.70;99.90;;;;;;5076607;28;20041;-84
2023/01/07 10:23:11;;;;;;;3.00;1.27;;;11.60;99.90;;;;;;5058544;28;20024;-84
2023/01/07 10:25:50;;;;;;;2.63;1.10;;;11.60;99.90;;;;;;5050726;28;20075;-84
2023/01/07 10:28:37;;;;;;;2.35;1.42;;;11.70;99.90;;;;;;5043624;28;20096;-87
2023/01/07 10:31:05;;;;;;;3.85;1.30;;;11.70;99.90;;;;;;5040788;28;20032;-84
2023/01/07 10:33:32;;;;;;;2.10;1.20;;;11.70;99.90;;;;;;5039204;28;20113;-84
2023/01/07 10:36:20;;;;;;;3.03;1.50;;;11.70;99.90;;;;;;5055235;28;20032;-84
2023/01/07 10:38:59;;;;;;;2.00;1.10;;;11.70;99.90;;;;;;5039640;28;20063;-84
2023/01/07 10:41:36;;;;;;;2.13;1.20;;;11.70;99.90;;;;;;5039175;28;20380;-84
2023/01/07 10:44:32;;;;;;;2.53;1.20;;;11.80;99.90;;;;;;5055325;28;20017;-84
2023/01/07 10:47:14;;;;;;;3.60;1.85;;;11.80;99.90;;;;;;5038543;28;20384;-85
2023/01/07 10:49:39;;;;;;;1.20;0.80;;;11.80;99.90;;;;;;5038806;28;20017;-84
2023/01/07 10:52:11;;;;;;;0.88;0.82;;;11.80;99.90;;;;;;5037376;28;20032;-83
2023/01/07 10:54:56;;;;;;;1.88;1.10;;;11.90;99.90;;;;;;5038695;28;20373;-84
2023/01/07 10:57:26;;;;;;;1.20;0.80;;;12.00;99.90;;;;;;5055007;28;20025;-84
2023/01/07 10:59:55;;;;;;;4.32;1.20;;;12.10;99.90;;;;;;5037925;28;20060;-83
2023/01/07 11:02:25;;;;;;;2.45;0.98;;;12.10;99.90;;;;;;5037802;28;20029;-84
2023/01/07 11:04:53;;;;;;;2.33;0.93;;;12.20;99.90;;;;;;5037828;28;20032;-84
2023/01/07 11:07:28;;;;;;;1.42;1.10;;;12.20;99.90;;;;;;5037789;28;20025;-84
2023/01/07 11:09:57;;;;;;;1.60;1.10;;;12.30;99.90;;;;;;5055692;28;20482;-84
2023/01/07 11:12:45;;;;;;;3.38;1.20;;;12.30;99.90;;;;;;5037982;28;20029;-84
2023/01/07 11:15:22;;;;;;;2.85;1.13;;;12.40;99.90;;;;;;5055612;28;20021;-84
2023/01/07 11:17:55;;;;;;;2.20;1.02;;;12.40;99.90;;;;;;5037808;28;20029;-83
2023/01/07 11:20:40;;;;;;;3.50;1.17;;;12.50;99.90;;;;;;5037805;28;20465;-83
2023/01/07 11:23:34;;;;;;;3.30;1.13;;;12.50;99.90;;;;;;5054938;28;20025;-84
2023/01/07 11:26:24;;;;;;;2.25;1.15;;;12.50;99.90;;;;;;5037568;28;20088;-83
2023/01/07 11:29:12;;;;;;;2.97;1.27;;;12.50;99.90;;;;;;5037493;28;20036;-84
2023/01/07 11:31:47;;;;;;;1.45;1.00;;;12.60;99.90;;;;;;5037701;28;20074;-84
2023/01/07 11:34:22;;;;;;;1.30;1.00;;;12.50;99.90;;;;;;5055338;28;20020;-84
2023/01/07 11:36:49;;;;;;;1.23;1.00;;;12.60;99.90;;;;;;5037717;28;20369;-84
2023/01/07 11:39:22;;;;;;;3.20;1.05;;;12.50;99.90;;;;;;5055231;28;20036;-84
2023/01/07 11:42:37;;;;;;;1.45;1.00;;;12.60;99.90;;;;;;5037486;28;20029;-86
2023/01/07 11:44:48;;;;;;;3.23;0.90;;;12.60;99.90;;;;;;5054710;28;20041;-84
2023/01/07 11:47:16;;;;;;;2.20;1.30;;;12.60;99.90;;;;;;5020396;28;20381;-84
2023/01/07 11:49:44;;;;;;;2.47;1.00;;;12.60;99.90;;;;;;5037109;28;20169;-83
2023/01/07 11:52:19;;;;;;;1.20;1.05;;;12.60;99.90;;;;;;5019739;28;20025;-83
2023/01/07 11:54:50;;;;;;;1.60;1.10;;;12.70;99.90;;;;;;5020662;28;20106;-83
2023/01/07 11:57:25;;;;;;;;;;;12.70;99.90;;;;;;5057762;28;20166;-82
2023/01/07 12:00:14;;;;;;;2.47;0.95;;;12.80;99.90;;;;;;5037457;28;19932;-82
2023/01/07 12:02:40;;;;;;;3.40;1.65;;;12.70;99.90;;;;;;5036694;28;20465;-83
2023/01/07 12:05:23;;;;;;;1.73;1.05;;;12.70;99.90;;;;;;5053135;28;20036;-84
2023/01/07 12:07:50;;;;;;;3.40;1.17;;;12.70;99.90;;;;;;5053451;28;20037;-83
2023/01/07 12:10:27;;;;;;;2.28;1.20;;;12.70;99.90;;;;;;5019612;28;20102;-83
2023/01/07 12:12:53;;;;;;;2.03;1.10;;;12.60;99.90;;;;;;5054065;28;20013;-84
2023/01/07 12:15:26;;;;;;;1.52;0.90;;;12.70;99.90;;;;;;5019908;28;20487;-95
2023/01/07 12:18:07;;;;;;;5.90;1.70;;;12.70;99.90;;;;;;5036533;28;20051;-84
2023/01/07 12:21:23;;;;;;;2.15;1.05;;;12.70;99.90;;;;;;5036802;28;20033;-87
2023/01/07 12:23:56;;;;;;;3.15;1.13;;;12.80;99.90;;;;;;4958217;28;20030;-86
2023/01/07 12:26:28;;;;;;;2.17;1.25;;;12.70;99.90;;;;;;4957970;28;20031;-85
2023/01/07 12:29:35;;;;;;;3.13;1.25;;;12.80;99.90;;;;;;5008396;28;20052;-83
2023/01/07 12:32:19;;;;;;;1.55;1.15;;;12.70;99.90;;;;;;5038359;28;20032;-83
2023/01/07 12:35:06;;;;;;;3.58;1.10;;;12.80;99.90;;;;;;5039605;28;20053;-82
2023/01/07 12:37:57;;;;;;;1.55;1.17;;;12.80;99.90;;;;;;5044756;28;20032;-93
2023/01/07 12:40:44;;;;;;;2.15;1.45;;;12.80;99.90;;;;;;5041347;28;20071;-84
2023/01/07 12:43:15;;;;;;;1.98;1.30;;;12.80;99.90;;;;;;5053921;28;20024;-84
2023/01/07 12:45:48;;;;;;;2.30;1.20;;;12.90;99.90;;;;;;5053958;28;20024;-83
2023/01/07 12:48:23;;;;;;;3.83;1.55;;;12.90;99.90;;;;;;5053633;28;20044;-84
2023/01/07 12:50:51;;;;;;;3.90;1.55;;;12.90;99.90;;;;;;5036343;28;20120;-83
2023/01/07 12:53:35;;;;;;;2.25;1.40;;;12.80;99.90;;;;;;5053504;28;20465;-83
2023/01/07 12:56:11;;;;;;;3.10;1.40;;;12.80;99.90;;;;;;5036149;28;20036;-82
2023/01/07 12:58:49;;;;;;;2.85;1.30;;;12.80;99.90;;;;;;5036018;28;20029;-85
2023/01/07 13:01:28;;;;;;;2.65;1.70;;;12.80;99.90;;;;;;5053538;28;20432;-85
2023/01/07 13:04:05;;;;;;;2.13;1.40;;;12.80;99.90;;;;;;5035850;28;20082;-84